Pagrindinis puslapis
METAR-TAF:

METAR-TAF

Oro uostai :

Paros, Graikija

platuma: 37-01-15N, ilguma: 025-06-46E, Aukštis: 38 m

Dabartinis oras

Ataskaita buvo paskelbta 1 valandą ir 2 minutes, ne 05:50 UTC
Vėjas 9 kt iš Pietų/Pietryčių
Temperatūra 25°C
Drėgmė 83%
Slėgis 1013 hPa
Matomumas 10 km arba daugiau
Mažai debesys ne aukštis 1800 ft

METAR: LGPA 180550Z 16009KT 9999 FEW018 25/22 Q1013

Laikas: 09:52 (06:52 UTC)


TAF: trūkstamas

Orai ataskaitas ir orų prognozės (METAR, TAF).

turimą stotys yra geltonos ir raudonos taškus žemėlapyje.

Perkelti pele per norėdami pamatyti stoties vardą.

Tada spustelėkite, norėdami matyti oro stebėjimo ir prognozės.

Norėdami pakeisti žemėlapį: spustelėkite ant žalios mygtukų su juodo kryžiaus žemyn,; žalią mygtuką su brūkšneliu, jei norite nutolinti; arba žalių rodyklių gretimoms žemėlapius.


METAR-TAF: